Time;durP1;ratioP1;P1;durP2;ratioP2;P2;SDS_P1;SDS_P2;PMS_P1;PMS_P2;Temp;Humidity;BMP_temperature;BMP_pressure;BME280_temperature;BME280_humidity;BME280_pressure;Samples;Min_cycle;Max_cycle;Signal;HPM_P1;HPM_P2
2023/07/27 00:00:30;;;;;;;2.23;2.00;;;22.40;86.10;;;;;;5076301;28;20534;-49
2023/07/27 00:02:57;;;;;;;2.80;1.80;;;22.50;86.10;;;;;;5077710;28;20470;-46
2023/07/27 00:05:23;;;;;;;5.20;2.90;;;22.40;86.00;;;;;;5076600;28;20460;-47
2023/07/27 00:07:51;;;;;;;1.93;1.73;;;22.40;86.10;;;;;;5067435;28;20448;-45
2023/07/27 00:10:20;;;;;;;6.57;1.83;;;22.40;86.00;;;;;;5071317;28;20986;-48
2023/07/27 00:12:46;;;;;;;2.10;1.80;;;22.40;86.00;;;;;;5074398;28;20461;-44
2023/07/27 00:15:13;;;;;;;2.10;1.80;;;22.40;86.00;;;;;;5081176;28;20463;-45
2023/07/27 00:17:41;;;;;;;6.27;2.57;;;22.40;86.00;;;;;;5077387;28;20467;-48
2023/07/27 00:20:08;;;;;;;2.13;1.93;;;22.40;86.70;;;;;;5076383;28;20839;-43
2023/07/27 00:22:35;;;;;;;1.80;1.70;;;22.40;86.00;;;;;;5079156;28;20455;-43
2023/07/27 00:25:03;;;;;;;2.20;2.00;;;22.40;85.90;;;;;;5070286;28;20459;-53
2023/07/27 00:27:30;;;;;;;1.83;1.73;;;22.40;85.90;;;;;;5072755;28;20758;-49
2023/07/27 00:29:56;;;;;;;2.20;1.97;;;22.40;85.90;;;;;;5084704;28;20467;-49
2023/07/27 00:32:23;;;;;;;2.40;2.20;;;22.40;85.90;;;;;;5081595;28;20764;-44
2023/07/27 00:34:51;;;;;;;1.80;1.70;;;22.40;85.90;;;;;;5081644;28;20480;-47
2023/07/27 00:37:18;;;;;;;2.70;2.45;;;22.40;85.90;;;;;;5074225;28;20548;-43
2023/07/27 00:39:44;;;;;;;2.75;2.08;;;22.40;85.90;;;;;;5073431;27;20685;-44
2023/07/27 00:42:12;;;;;;;2.07;1.90;;;22.40;85.80;;;;;;5080452;28;20189;-45
2023/07/27 00:44:39;;;;;;;2.33;2.13;;;22.40;85.70;;;;;;5079178;27;20954;-46
2023/07/27 00:47:07;;;;;;;2.33;2.13;;;22.40;85.80;;;;;;5076958;28;20478;-45
2023/07/27 00:49:33;;;;;;;2.20;1.97;;;22.40;85.70;;;;;;5075979;27;20447;-43
2023/07/27 00:52:06;;;;;;;1.85;1.75;;;22.40;85.70;;;;;;5089425;28;20463;-49
2023/07/27 00:54:32;;;;;;;2.13;1.80;;;22.40;85.70;;;;;;5090812;28;20196;-47
2023/07/27 00:56:59;;;;;;;2.00;1.80;;;22.40;85.70;;;;;;5084687;28;20451;-45
2023/07/27 00:59:28;;;;;;;2.37;2.17;;;22.40;85.60;;;;;;5085032;28;20801;-47
2023/07/27 01:01:55;;;;;;;2.20;2.00;;;22.40;85.70;;;;;;5080933;28;20471;-45
2023/07/27 01:04:22;;;;;;;2.73;2.53;;;22.40;85.70;;;;;;5082559;28;20455;-47
2023/07/27 01:06:49;;;;;;;2.00;1.80;;;22.30;85.60;;;;;;5080920;27;20454;-48
2023/07/27 01:09:16;;;;;;;2.40;2.20;;;22.40;85.70;;;;;;5081913;28;21252;-45
2023/07/27 01:11:49;;;;;;;2.23;1.73;;;22.40;85.70;;;;;;5088816;28;20463;-48
2023/07/27 01:14:24;;;;;;;2.67;2.47;;;22.40;85.70;;;;;;5088361;28;20792;-48
2023/07/27 01:16:58;;;;;;;2.40;2.20;;;22.40;85.70;;;;;;5091267;28;21120;-46
2023/07/27 01:19:53;;;;;;;2.53;1.73;;;22.40;85.70;;;;;;5083567;28;20480;-52
2023/07/27 01:22:37;;;;;;;2.40;2.20;;;22.30;85.40;;;;;;5089845;28;20464;-44
2023/07/27 01:25:12;;;;;;;2.73;2.53;;;22.40;86.40;;;;;;5079929;28;20455;-48
2023/07/27 01:27:56;;;;;;;1.57;1.47;;;22.30;85.60;;;;;;5080360;28;20458;-43
2023/07/27 01:30:51;;;;;;;1.80;1.60;;;22.40;85.60;;;;;;5075204;28;20459;-46
2023/07/27 01:33:22;;;;;;;2.27;2.07;;;22.40;85.60;;;;;;5074161;27;20891;-51
2023/07/27 01:35:56;;;;;;;2.20;2.00;;;22.40;85.70;;;;;;5076713;28;20478;-48
2023/07/27 01:38:25;;;;;;;2.37;2.17;;;22.30;85.50;;;;;;5083569;28;20463;-47
2023/07/27 01:40:54;;;;;;;2.30;1.90;;;22.40;85.70;;;;;;5071413;28;20838;-47
2023/07/27 01:43:21;;;;;;;2.20;2.00;;;22.30;85.60;;;;;;5072224;28;20231;-48
2023/07/27 01:45:51;;;;;;;1.90;1.80;;;22.30;85.60;;;;;;5069497;28;20459;-52
2023/07/27 01:48:18;;;;;;;2.10;1.90;;;22.30;85.60;;;;;;5069908;28;21061;-47
2023/07/27 01:50:46;;;;;;;2.55;2.35;;;22.30;85.70;;;;;;5076952;28;20466;-46
2023/07/27 01:53:14;;;;;;;1.90;1.80;;;22.30;85.60;;;;;;5093562;27;20198;-46
2023/07/27 01:55:41;;;;;;;2.03;1.83;;;22.30;85.70;;;;;;5091851;28;20197;-49
2023/07/27 01:58:10;;;;;;;2.67;2.47;;;22.30;85.70;;;;;;5088130;28;20197;-45
2023/07/27 02:00:37;;;;;;;2.17;1.97;;;22.30;85.70;;;;;;5084097;28;20484;-45
2023/07/27 02:03:06;;;;;;;1.70;1.60;;;22.30;85.70;;;;;;5082294;28;20451;-44
2023/07/27 02:05:32;;;;;;;1.83;1.60;;;22.30;85.60;;;;;;5082960;28;20455;-44
2023/07/27 02:07:59;;;;;;;2.30;2.10;;;22.30;85.60;;;;;;5080491;28;20839;-44
2023/07/27 02:10:26;;;;;;;2.35;2.15;;;22.30;85.60;;;;;;5080359;28;20212;-48
2023/07/27 02:12:59;;;;;;;2.47;2.27;;;22.30;85.70;;;;;;5087644;28;20197;-48
2023/07/27 02:15:30;;;;;;;2.40;2.20;;;22.30;85.70;;;;;;5089292;28;20463;-46
2023/07/27 02:18:03;;;;;;;2.30;2.10;;;22.30;86.50;;;;;;5087950;28;20569;-47
2023/07/27 02:20:36;;;;;;;2.10;1.88;;;22.20;85.60;;;;;;5093689;28;20481;-44
2023/07/27 02:23:04;;;;;;;2.40;2.20;;;22.20;85.60;;;;;;5090709;28;20213;-44
2023/07/27 02:25:32;;;;;;;1.93;1.83;;;22.30;85.70;;;;;;5093200;28;20455;-48
2023/07/27 02:27:58;;;;;;;2.07;1.87;;;22.30;85.70;;;;;;5085560;28;20459;-44
2023/07/27 02:30:25;;;;;;;2.08;1.98;;;22.30;85.80;;;;;;5083779;28;20463;-48
2023/07/27 02:32:52;;;;;;;2.40;2.20;;;22.30;85.80;;;;;;5075327;28;20205;-50
2023/07/27 02:35:19;;;;;;;2.03;1.83;;;22.30;85.80;;;;;;5075728;28;20486;-45
2023/07/27 02:37:47;;;;;;;1.93;1.73;;;22.20;85.70;;;;;;5069309;27;20459;-47
2023/07/27 02:40:13;;;;;;;1.70;1.60;;;22.30;85.80;;;;;;5074838;28;20467;-46
2023/07/27 02:42:40;;;;;;;2.90;1.97;;;22.30;85.80;;;;;;5069740;28;20508;-46
2023/07/27 02:45:07;;;;;;;2.37;2.17;;;22.30;85.80;;;;;;5069721;28;20471;-46
2023/07/27 02:47:34;;;;;;;2.63;2.20;;;22.30;85.80;;;;;;5067563;27;20470;-47
2023/07/27 02:50:01;;;;;;;1.80;1.70;;;22.30;85.80;;;;;;5070418;27;20456;-50
2023/07/27 02:52:27;;;;;;;2.27;2.07;;;22.20;85.70;;;;;;5071829;28;20474;-48
2023/07/27 02:54:55;;;;;;;2.13;1.97;;;22.30;85.90;;;;;;5078061;28;20824;-46
2023/07/27 02:57:22;;;;;;;2.13;1.83;;;22.20;85.80;;;;;;5071875;28;20865;-45
2023/07/27 02:59:49;;;;;;;2.40;2.20;;;22.20;85.70;;;;;;5068717;27;20447;-46
2023/07/27 03:02:15;;;;;;;1.80;1.63;;;22.20;85.70;;;;;;5076909;27;21009;-50
2023/07/27 03:04:42;;;;;;;2.28;2.08;;;22.20;85.70;;;;;;5081774;28;20463;-45
2023/07/27 03:07:09;;;;;;;2.30;1.97;;;22.20;85.70;;;;;;5084400;28;20201;-45
2023/07/27 03:09:35;;;;;;;2.13;1.93;;;22.20;85.80;;;;;;5082018;28;20921;-45
2023/07/27 03:12:04;;;;;;;2.23;2.03;;;22.20;85.70;;;;;;5084152;28;20583;-47
2023/07/27 03:14:31;;;;;;;2.43;2.20;;;22.20;85.80;;;;;;5079898;28;20828;-50
2023/07/27 03:16:58;;;;;;;2.07;1.87;;;22.20;85.80;;;;;;5077456;28;20455;-53
2023/07/27 03:19:24;;;;;;;1.85;1.70;;;22.20;85.80;;;;;;5085553;28;20446;-46
2023/07/27 03:21:52;;;;;;;2.05;1.77;;;22.20;85.80;;;;;;5087776;28;20224;-44
2023/07/27 03:24:18;;;;;;;1.80;1.63;;;22.20;85.80;;;;;;5088825;28;20263;-45
2023/07/27 03:26:45;;;;;;;2.40;2.20;;;22.20;85.80;;;;;;5086235;28;20460;-49
2023/07/27 03:29:13;;;;;;;1.87;1.77;;;22.20;85.80;;;;;;5076296;28;20470;-45
2023/07/27 03:31:40;;;;;;;2.43;2.23;;;22.20;85.90;;;;;;5076820;28;20470;-46
2023/07/27 03:34:06;;;;;;;2.50;2.30;;;22.20;85.90;;;;;;5078551;28;20451;-44
2023/07/27 03:36:33;;;;;;;2.30;2.10;;;22.20;85.90;;;;;;5078660;28;20498;-45
2023/07/27 03:39:00;;;;;;;1.92;1.75;;;22.20;85.90;;;;;;5079849;28;20189;-47
2023/07/27 03:41:27;;;;;;;2.53;1.92;;;22.20;85.90;;;;;;5078217;28;20225;-48
2023/07/27 03:43:53;;;;;;;1.80;1.70;;;22.20;85.90;;;;;;5073305;28;20193;-46
2023/07/27 03:46:21;;;;;;;2.08;1.90;;;22.20;85.90;;;;;;5083897;28;20194;-48
2023/07/27 03:48:49;;;;;;;2.40;2.20;;;22.10;85.80;;;;;;5066630;28;20243;-47
2023/07/27 03:51:16;;;;;;;2.20;2.00;;;22.20;85.90;;;;;;5070342;28;22468;-48
2023/07/27 03:53:42;;;;;;;1.53;1.43;;;22.20;85.90;;;;;;5073784;28;20474;-48
2023/07/27 03:56:09;;;;;;;3.10;1.93;;;22.20;85.90;;;;;;5080761;28;20708;-44
2023/07/27 03:58:36;;;;;;;2.23;2.03;;;22.20;85.90;;;;;;5071311;28;20464;-51
2023/07/27 04:01:03;;;;;;;1.98;1.60;;;22.20;85.90;;;;;;5064619;28;20873;-47
2023/07/27 04:03:31;;;;;;;2.20;2.00;;;22.10;85.80;;;;;;5069070;28;20206;-47
2023/07/27 04:05:57;;;;;;;1.90;1.70;;;22.20;85.90;;;;;;5071139;28;20560;-45
2023/07/27 04:08:24;;;;;;;2.10;1.90;;;22.20;86.00;;;;;;5071326;28;20463;-48
2023/07/27 04:10:51;;;;;;;2.20;2.00;;;22.10;85.90;;;;;;5077381;28;20299;-48
2023/07/27 04:13:18;;;;;;;1.80;1.70;;;22.10;85.80;;;;;;5071274;28;20455;-46
2023/07/27 04:15:44;;;;;;;1.90;1.43;;;22.10;85.90;;;;;;5071409;28;20463;-45
2023/07/27 04:18:11;;;;;;;1.90;1.70;;;22.10;85.90;;;;;;5073121;28;20520;-46
2023/07/27 04:20:39;;;;;;;1.70;1.60;;;22.10;85.90;;;;;;5078233;28;20680;-47
2023/07/27 04:23:06;;;;;;;1.60;1.43;;;22.10;85.90;;;;;;5079657;28;20479;-45
2023/07/27 04:25:32;;;;;;;1.90;1.60;;;22.10;85.90;;;;;;5083304;28;21059;-46
2023/07/27 04:27:59;;;;;;;2.10;1.67;;;22.10;85.90;;;;;;5074001;28;20462;-49
2023/07/27 04:30:26;;;;;;;2.30;2.10;;;22.10;85.90;;;;;;5070042;28;20466;-45
2023/07/27 04:32:52;;;;;;;1.90;1.80;;;22.10;85.90;;;;;;5074330;28;20467;-48
2023/07/27 04:35:19;;;;;;;2.17;1.97;;;22.10;85.90;;;;;;5076019;28;20221;-48
2023/07/27 04:37:47;;;;;;;1.60;1.50;;;22.10;85.90;;;;;;5073411;28;20467;-43
2023/07/27 04:40:14;;;;;;;1.60;1.50;;;22.10;85.90;;;;;;5072614;28;20970;-45
2023/07/27 04:42:41;;;;;;;2.40;2.20;;;22.10;86.00;;;;;;5070063;28;21115;-47
2023/07/27 04:45:09;;;;;;;2.20;2.03;;;22.20;86.00;;;;;;5072374;28;21188;-47
2023/07/27 04:47:36;;;;;;;1.57;1.47;;;22.10;85.90;;;;;;5079139;28;20466;-44
2023/07/27 04:50:03;;;;;;;2.27;2.07;;;22.10;86.00;;;;;;5082366;28;20772;-52
2023/07/27 04:52:29;;;;;;;1.90;1.70;;;22.10;86.00;;;;;;5065646;28;21526;-46
2023/07/27 04:54:57;;;;;;;1.90;1.80;;;22.10;86.00;;;;;;5092897;28;20198;-43
2023/07/27 04:57:25;;;;;;;2.10;1.83;;;22.10;85.90;;;;;;5077752;28;20462;-45
2023/07/27 04:59:52;;;;;;;1.42;1.33;;;22.10;86.00;;;;;;5074930;28;20507;-45
2023/07/27 05:02:19;;;;;;;2.30;2.03;;;22.10;85.90;;;;;;5079205;28;20248;-47
2023/07/27 05:04:45;;;;;;;10.10;2.70;;;22.10;86.00;;;;;;5090529;28;20466;-46
2023/07/27 05:07:12;;;;;;;2.03;1.70;;;22.10;85.90;;;;;;5083905;28;20463;-49
2023/07/27 05:09:39;;;;;;;2.13;1.93;;;22.10;86.00;;;;;;5078281;28;20478;-45
2023/07/27 05:12:07;;;;;;;1.87;1.77;;;22.10;86.00;;;;;;5079915;28;20458;-43
2023/07/27 05:14:34;;;;;;;1.83;1.63;;;22.10;86.00;;;;;;5079804;28;20456;-47
2023/07/27 05:17:01;;;;;;;1.60;1.50;;;22.10;86.00;;;;;;5079915;28;20456;-50
2023/07/27 05:19:27;;;;;;;1.90;1.80;;;22.10;86.00;;;;;;5081144;28;20466;-44
2023/07/27 05:21:54;;;;;;;2.63;1.43;;;22.10;86.00;;;;;;5080058;28;20484;-44
2023/07/27 05:24:21;;;;;;;1.75;1.65;;;22.00;85.90;;;;;;5082454;28;20444;-46
2023/07/27 05:26:47;;;;;;;1.80;1.50;;;22.10;86.30;;;;;;5087512;28;20685;-45
2023/07/27 05:29:16;;;;;;;1.70;1.60;;;22.10;86.00;;;;;;5086418;28;20455;-46
2023/07/27 05:31:42;;;;;;;2.17;1.60;;;22.10;86.00;;;;;;5082372;28;20467;-44
2023/07/27 05:34:09;;;;;;;1.75;1.60;;;22.00;85.90;;;;;;5084556;28;20839;-46
2023/07/27 05:36:36;;;;;;;1.97;1.77;;;22.10;86.00;;;;;;5071251;28;20232;-49
2023/07/27 05:39:03;;;;;;;1.50;1.40;;;22.10;86.00;;;;;;5070219;28;20458;-44
2023/07/27 05:41:30;;;;;;;2.07;1.70;;;22.10;86.00;;;;;;5073501;28;20463;-44
2023/07/27 05:43:56;;;;;;;2.60;2.00;;;22.00;85.90;;;;;;5083904;28;21065;-46
2023/07/27 05:46:24;;;;;;;2.00;1.80;;;22.00;85.90;;;;;;5071289;27;20471;-50
2023/07/27 05:48:51;;;;;;;1.90;1.80;;;22.00;86.80;;;;;;5071921;28;20462;-51
2023/07/27 05:51:18;;;;;;;2.03;1.80;;;22.00;85.90;;;;;;5071287;27;20455;-46
2023/07/27 05:53:45;;;;;;;1.63;1.53;;;22.00;86.00;;;;;;5076447;27;20959;-47
2023/07/27 05:56:11;;;;;;;1.80;1.57;;;22.00;85.90;;;;;;5079412;27;20550;-49
2023/07/27 05:58:38;;;;;;;2.13;1.70;;;22.00;85.90;;;;;;5080934;28;20846;-50
2023/07/27 06:01:05;;;;;;;1.73;1.63;;;22.00;85.90;;;;;;5071313;28;20459;-44
2023/07/27 06:03:35;;;;;;;2.07;1.70;;;22.00;86.00;;;;;;5073096;27;20483;-47
2023/07/27 06:06:03;;;;;;;1.77;1.65;;;22.10;86.10;;;;;;5073781;28;20498;-46
2023/07/27 06:08:29;;;;;;;1.85;1.50;;;22.00;86.00;;;;;;5071546;27;20287;-51
2023/07/27 06:11:04;;;;;;;1.97;1.87;;;22.00;86.00;;;;;;5076307;28;20205;-43
2023/07/27 06:13:31;;;;;;;1.70;1.30;;;22.00;86.00;;;;;;5074557;28;20822;-45
2023/07/27 06:15:57;;;;;;;1.70;1.60;;;22.00;86.00;;;;;;5077213;28;20467;-50
2023/07/27 06:18:24;;;;;;;1.93;1.73;;;22.00;86.00;;;;;;5077840;28;20452;-45
2023/07/27 06:20:52;;;;;;;1.77;1.67;;;22.00;86.10;;;;;;5078001;28;20996;-46
2023/07/27 06:23:19;;;;;;;1.70;1.27;;;22.00;86.10;;;;;;5074944;28;20475;-45
2023/07/27 06:25:46;;;;;;;1.70;1.60;;;22.00;86.10;;;;;;5077852;28;20458;-46
2023/07/27 06:28:13;;;;;;;2.33;2.10;;;22.00;86.10;;;;;;5079912;28;20466;-46
2023/07/27 06:30:40;;;;;;;1.73;1.63;;;22.00;86.20;;;;;;5076593;28;20201;-44
2023/07/27 06:33:07;;;;;;;1.70;1.60;;;22.00;86.20;;;;;;5073501;27;20467;-46
2023/07/27 06:35:34;;;;;;;1.92;1.83;;;22.00;86.20;;;;;;5068828;28;20214;-47
2023/07/27 06:38:02;;;;;;;2.10;1.50;;;22.00;86.20;;;;;;5076819;28;20200;-45
2023/07/27 06:40:29;;;;;;;1.70;1.38;;;22.00;86.20;;;;;;5067695;28;20194;-47
2023/07/27 06:42:55;;;;;;;2.03;1.70;;;22.00;86.20;;;;;;5067984;28;20214;-49
2023/07/27 06:45:22;;;;;;;1.97;1.63;;;22.00;86.20;;;;;;5067349;27;20461;-44
2023/07/27 06:47:49;;;;;;;1.53;1.43;;;22.00;86.20;;;;;;5070069;28;20462;-46
2023/07/27 06:50:15;;;;;;;2.10;1.90;;;22.00;86.30;;;;;;5076560;27;20800;-45
2023/07/27 06:52:42;;;;;;;2.03;1.85;;;22.00;86.30;;;;;;5069172;28;20216;-50
2023/07/27 06:55:11;;;;;;;1.97;1.50;;;22.00;86.30;;;;;;5078155;28;20202;-43
2023/07/27 06:57:38;;;;;;;1.75;1.65;;;22.00;86.30;;;;;;5077761;28;20824;-46
2023/07/27 07:00:07;;;;;;;2.00;1.80;;;22.00;86.30;;;;;;5083975;28;20193;-45
2023/07/27 07:02:34;;;;;;;1.75;1.48;;;22.00;86.30;;;;;;5076989;28;20220;-46
2023/07/27 07:05:01;;;;;;;2.60;1.50;;;22.00;86.40;;;;;;5074797;28;20316;-44
2023/07/27 07:07:28;;;;;;;2.13;1.92;;;22.00;86.30;;;;;;5075789;28;20487;-45
2023/07/27 07:09:54;;;;;;;1.93;1.70;;;22.00;86.40;;;;;;5078045;28;20220;-47
2023/07/27 07:12:22;;;;;;;1.70;1.60;;;21.90;86.20;;;;;;5080660;28;20467;-44
2023/07/27 07:14:49;;;;;;;1.70;1.53;;;22.00;86.40;;;;;;5083016;28;20477;-44
2023/07/27 07:17:16;;;;;;;1.95;1.75;;;21.90;86.40;;;;;;5078373;28;20468;-47
2023/07/27 07:19:42;;;;;;;1.60;1.50;;;22.00;86.40;;;;;;5079853;28;20212;-45
2023/07/27 07:22:09;;;;;;;1.83;1.63;;;22.00;86.40;;;;;;5084649;28;20536;-44
2023/07/27 07:24:36;;;;;;;4.20;1.50;;;21.90;86.40;;;;;;5079291;28;20456;-45
2023/07/27 07:27:02;;;;;;;1.90;1.70;;;22.00;86.50;;;;;;5078096;28;20463;-48
2023/07/27 07:29:30;;;;;;;2.00;1.30;;;22.00;86.50;;;;;;5085171;28;20467;-46
2023/07/27 07:31:57;;;;;;;1.85;1.65;;;21.90;86.40;;;;;;5075686;28;21056;-44
2023/07/27 07:34:24;;;;;;;1.60;1.40;;;22.00;86.60;;;;;;5073970;28;20201;-50
2023/07/27 07:36:51;;;;;;;1.23;1.00;;;21.90;86.50;;;;;;5071538;28;20466;-44
2023/07/27 07:39:18;;;;;;;2.10;1.90;;;22.00;86.60;;;;;;5076678;27;20954;-44
2023/07/27 07:41:44;;;;;;;4.55;1.73;;;22.00;86.70;;;;;;5068432;28;20468;-48
2023/07/27 07:44:11;;;;;;;1.90;1.70;;;21.90;86.50;;;;;;5078227;28;20228;-47
2023/07/27 07:46:40;;;;;;;2.38;2.17;;;21.90;86.50;;;;;;5085185;28;20459;-49
2023/07/27 07:49:07;;;;;;;1.60;1.50;;;21.90;86.50;;;;;;5088935;28;20197;-44
2023/07/27 07:51:33;;;;;;;1.67;1.57;;;21.90;86.50;;;;;;5094139;28;21009;-43
2023/07/27 07:54:00;;;;;;;3.15;2.00;;;21.90;86.50;;;;;;5080997;28;20454;-52
2023/07/27 07:56:27;;;;;;;1.80;1.70;;;21.90;86.60;;;;;;5076792;28;20204;-48
2023/07/27 07:58:53;;;;;;;1.90;1.70;;;21.90;86.50;;;;;;5083414;28;20463;-44
2023/07/27 08:01:20;;;;;;;1.65;1.52;;;21.90;86.60;;;;;;5082192;28;20213;-43
2023/07/27 08:03:48;;;;;;;2.10;1.90;;;21.90;86.60;;;;;;5074653;28;21639;-45
2023/07/27 08:06:15;;;;;;;1.40;1.30;;;21.90;86.70;;;;;;5076110;28;20471;-49
2023/07/27 08:08:42;;;;;;;1.80;1.53;;;21.90;86.70;;;;;;5074886;28;20891;-43
2023/07/27 08:11:08;;;;;;;2.03;1.37;;;21.90;86.70;;;;;;5075463;28;20459;-47
2023/07/27 08:13:35;;;;;;;1.60;1.50;;;21.90;86.70;;;;;;5075702;28;20463;-43
2023/07/27 08:16:03;;;;;;;1.77;1.40;;;21.90;86.70;;;;;;5080316;28;20448;-44
2023/07/27 08:18:31;;;;;;;2.00;1.65;;;21.90;86.80;;;;;;5081351;28;21065;-42
2023/07/27 08:21:01;;;;;;;1.80;1.70;;;21.90;86.80;;;;;;5080205;28;20196;-45
2023/07/27 08:23:28;;;;;;;1.90;1.40;;;21.90;86.90;;;;;;5080606;28;20225;-43
2023/07/27 08:25:55;;;;;;;2.70;1.83;;;21.90;86.90;;;;;;5081323;28;20497;-47
2023/07/27 08:28:22;;;;;;;2.00;1.70;;;21.90;87.00;;;;;;5082349;28;20452;-45
2023/07/27 08:30:50;;;;;;;1.80;1.50;;;21.90;87.10;;;;;;5080857;28;20505;-45
2023/07/27 08:33:17;;;;;;;1.90;1.50;;;21.90;87.20;;;;;;5078692;28;20585;-48
2023/07/27 08:35:44;;;;;;;1.88;1.67;;;21.90;87.20;;;;;;5078951;28;21161;-46
2023/07/27 08:38:12;;;;;;;2.38;1.80;;;21.90;88.10;;;;;;5075243;28;20675;-48
2023/07/27 08:40:39;;;;;;;1.77;1.53;;;21.90;87.30;;;;;;5076750;28;20205;-45
2023/07/27 08:43:08;;;;;;;1.67;1.57;;;21.90;87.50;;;;;;5080540;28;20486;-46
2023/07/27 08:45:35;;;;;;;2.45;2.10;;;21.90;87.50;;;;;;5075131;28;20807;-47
2023/07/27 08:48:03;;;;;;;2.47;1.95;;;21.90;87.60;;;;;;5075630;28;20281;-44
2023/07/27 08:50:31;;;;;;;2.38;1.98;;;21.90;87.60;;;;;;5074537;28;20201;-44
2023/07/27 08:52:58;;;;;;;1.75;1.55;;;21.90;87.60;;;;;;5076440;28;20205;-42
2023/07/27 08:55:26;;;;;;;1.60;1.50;;;21.90;87.60;;;;;;5079594;28;20897;-43
2023/07/27 08:57:52;;;;;;;2.05;1.85;;;21.90;87.70;;;;;;5078844;28;20636;-41
2023/07/27 09:00:19;;;;;;;4.03;1.60;;;21.90;87.90;;;;;;5083115;28;20198;-45
2023/07/27 09:02:46;;;;;;;6.20;1.83;;;21.90;88.40;;;;;;5082390;28;20478;-44
2023/07/27 09:05:13;;;;;;;3.88;1.80;;;21.90;88.80;;;;;;5079686;28;20759;-48
2023/07/27 09:07:40;;;;;;;7.70;1.73;;;21.90;89.40;;;;;;5078239;28;21033;-43
2023/07/27 09:10:09;;;;;;;7.93;1.73;;;21.90;89.80;;;;;;5083461;28;20554;-43
2023/07/27 09:12:37;;;;;;;2.35;1.33;;;21.90;89.80;;;;;;5082373;28;20216;-44
2023/07/27 09:15:11;;;;;;;3.38;1.65;;;21.90;90.30;;;;;;5084037;28;20198;-46
2023/07/27 09:17:38;;;;;;;4.15;1.67;;;21.90;90.50;;;;;;5085823;28;20231;-43
2023/07/27 09:20:10;;;;;;;1.92;1.83;;;21.90;90.90;;;;;;5085991;28;20201;-45
2023/07/27 09:22:37;;;;;;;2.07;1.70;;;21.90;91.20;;;;;;5087862;28;20201;-47
2023/07/27 09:25:05;;;;;;;2.50;1.20;;;21.90;91.30;;;;;;5086703;28;20500;-45
2023/07/27 09:27:43;;;;;;;2.50;1.20;;;21.90;91.60;;;;;;5080976;27;20455;-49
2023/07/27 09:30:10;;;;;;;2.97;1.23;;;22.00;92.30;;;;;;5083970;28;20284;-50
2023/07/27 09:32:37;;;;;;;2.53;1.30;;;22.00;92.10;;;;;;5085014;28;20201;-50
2023/07/27 09:35:05;;;;;;;2.00;1.80;;;22.00;93.10;;;;;;5083872;28;20218;-55
2023/07/27 09:37:31;;;;;;;4.53;1.50;;;22.00;93.00;;;;;;5082377;28;20546;-50
2023/07/27 09:40:08;;;;;;;1.77;1.50;;;22.00;93.10;;;;;;5088105;28;20456;-53
2023/07/27 09:42:35;;;;;;;1.80;1.63;;;22.00;93.20;;;;;;5082569;28;20487;-52
2023/07/27 09:45:05;;;;;;;2.30;1.73;;;22.00;93.60;;;;;;5084006;27;20469;-59
2023/07/27 09:47:32;;;;;;;3.13;1.20;;;22.10;94.00;;;;;;5086802;28;20466;-55
2023/07/27 09:49:59;;;;;;;3.53;1.90;;;22.10;94.10;;;;;;5091853;28;20487;-46
2023/07/27 09:52:26;;;;;;;2.17;1.00;;;22.10;94.10;;;;;;5088768;28;20459;-50
2023/07/27 09:54:55;;;;;;;2.63;1.23;;;22.10;94.60;;;;;;5085715;28;20467;-52
2023/07/27 09:57:23;;;;;;;2.00;1.13;;;22.10;94.60;;;;;;5092992;28;20436;-50
2023/07/27 09:59:50;;;;;;;2.70;1.93;;;22.10;94.40;;;;;;5080209;28;20460;-51
2023/07/27 10:02:19;;;;;;;3.40;1.10;;;22.10;94.70;;;;;;5095689;28;20861;-49
2023/07/27 10:04:49;;;;;;;1.30;1.00;;;22.10;94.90;;;;;;5093664;28;24789;-52
2023/07/27 10:07:16;;;;;;;1.30;1.20;;;22.20;94.90;;;;;;5095072;28;20473;-59
2023/07/27 10:09:43;;;;;;;1.40;1.20;;;22.20;95.00;;;;;;5089970;27;20471;-59
2023/07/27 10:12:10;;;;;;;3.60;1.23;;;22.20;95.20;;;;;;5085369;28;20459;-58
2023/07/27 10:14:40;;;;;;;5.40;1.43;;;22.20;95.50;;;;;;5087463;28;20772;-55
2023/07/27 10:17:08;;;;;;;1.57;1.10;;;22.30;95.50;;;;;;5088911;28;20455;-55
2023/07/27 10:19:44;;;;;;;1.60;1.07;;;22.20;95.40;;;;;;5092813;28;20904;-48
2023/07/27 10:22:13;;;;;;;3.23;1.27;;;22.30;95.40;;;;;;5097697;28;20457;-51
2023/07/27 10:24:48;;;;;;;1.70;1.20;;;22.30;95.40;;;;;;5096994;28;20846;-51
2023/07/27 10:27:15;;;;;;;2.30;1.37;;;22.30;95.50;;;;;;5080975;28;20462;-50
2023/07/27 10:29:47;;;;;;;1.60;1.50;;;22.40;95.80;;;;;;5077683;28;21125;-56
2023/07/27 10:32:14;;;;;;;1.57;1.13;;;22.30;95.70;;;;;;5080952;28;20459;-65
2023/07/27 10:34:42;;;;;;;1.53;0.97;;;22.40;96.00;;;;;;5080862;28;20464;-60
2023/07/27 10:37:10;;;;;;;2.17;1.40;;;22.40;96.20;;;;;;5079507;28;20456;-58
2023/07/27 10:39:46;;;;;;;3.70;1.27;;;22.40;96.30;;;;;;5080761;28;20472;-51
2023/07/27 10:42:16;;;;;;;1.50;1.10;;;22.50;96.40;;;;;;5083366;28;20939;-51
2023/07/27 10:44:45;;;;;;;3.03;1.30;;;22.50;96.40;;;;;;5079416;28;20475;-53
2023/07/27 10:47:13;;;;;;;2.33;1.77;;;22.50;96.70;;;;;;5081446;28;20516;-60
2023/07/27 10:49:41;;;;;;;2.00;1.20;;;22.50;96.40;;;;;;5081081;28;21183;-47
2023/07/27 10:52:10;;;;;;;10.13;1.47;;;22.50;96.70;;;;;;5082156;28;20451;-52
2023/07/27 10:54:39;;;;;;;2.53;1.13;;;22.60;96.70;;;;;;5077694;28;20451;-49
2023/07/27 10:57:07;;;;;;;2.23;1.37;;;22.60;96.90;;;;;;5080652;28;20551;-54
2023/07/27 10:59:38;;;;;;;2.33;1.50;;;22.60;96.50;;;;;;5079277;28;20706;-53
2023/07/27 11:02:10;;;;;;;2.30;2.10;;;22.60;96.30;;;;;;5080468;28;21124;-48
2023/07/27 11:04:39;;;;;;;3.37;1.67;;;22.60;95.70;;;;;;5082052;28;20533;-58
2023/07/27 11:07:06;;;;;;;3.43;1.90;;;22.70;96.20;;;;;;5080418;28;20984;-54
2023/07/27 11:09:34;;;;;;;2.50;1.60;;;22.60;96.20;;;;;;5081112;28;20466;-57
2023/07/27 11:12:01;;;;;;;2.87;2.13;;;22.70;96.30;;;;;;5077656;28;20463;-53
2023/07/27 11:14:28;;;;;;;7.60;2.23;;;22.70;96.30;;;;;;5078092;28;20668;-52
2023/07/27 11:16:55;;;;;;;5.50;2.40;;;22.70;96.10;;;;;;5082396;28;20862;-53
2023/07/27 11:19:26;;;;;;;4.40;2.23;;;22.70;96.10;;;;;;5081001;28;20848;-50
2023/07/27 11:21:55;;;;;;;3.93;2.00;;;22.70;96.20;;;;;;5082423;27;21015;-49
2023/07/27 11:24:21;;;;;;;2.23;1.77;;;22.70;96.00;;;;;;5080990;28;20564;-57
2023/07/27 11:26:49;;;;;;;3.20;2.20;;;22.70;96.00;;;;;;5081459;28;21056;-55
2023/07/27 11:29:17;;;;;;;3.13;1.93;;;22.70;96.10;;;;;;5079279;28;21114;-58
2023/07/27 11:31:54;;;;;;;2.80;2.03;;;22.80;96.10;;;;;;5082581;28;20865;-54
2023/07/27 11:34:24;;;;;;;4.57;2.10;;;22.80;95.70;;;;;;5080763;28;20462;-60
2023/07/27 11:36:53;;;;;;;4.13;2.40;;;22.80;95.60;;;;;;5080806;28;20476;-57
2023/07/27 11:39:20;;;;;;;4.30;2.23;;;22.80;95.80;;;;;;5080197;28;20521;-53
2023/07/27 11:41:50;;;;;;;3.10;2.80;;;22.90;95.30;;;;;;5079367;28;20458;-62
2023/07/27 11:44:17;;;;;;;6.03;3.07;;;23.00;95.10;;;;;;5081650;28;20479;-55
2023/07/27 11:46:51;;;;;;;4.43;3.03;;;23.10;94.80;;;;;;5078952;28;20554;-56
2023/07/27 11:49:19;;;;;;;3.50;3.07;;;23.00;94.90;;;;;;5080864;28;20812;-54
2023/07/27 11:51:47;;;;;;;7.43;3.60;;;23.00;94.90;;;;;;5080868;28;20463;-48
2023/07/27 11:54:22;;;;;;;8.87;3.60;;;23.00;95.00;;;;;;5082600;28;20456;-54
2023/07/27 11:56:53;;;;;;;4.13;3.20;;;23.00;95.10;;;;;;5080860;28;20546;-55
2023/07/27 11:59:20;;;;;;;3.13;2.53;;;23.00;95.20;;;;;;5078565;28;20459;-62
2023/07/27 12:01:48;;;;;;;3.97;3.07;;;23.10;94.90;;;;;;5082531;28;20499;-54
2023/07/27 12:04:15;;;;;;;7.17;4.10;;;23.10;95.10;;;;;;5081765;28;20482;-60
2023/07/27 12:06:43;;;;;;;6.40;4.10;;;23.10;95.20;;;;;;5077248;28;20858;-55
2023/07/27 12:09:10;;;;;;;4.10;2.90;;;23.00;95.10;;;;;;5082110;28;20463;-51
2023/07/27 12:11:38;;;;;;;5.23;3.03;;;23.00;95.10;;;;;;5073094;28;20459;-58
2023/07/27 12:14:06;;;;;;;4.27;3.03;;;23.10;95.10;;;;;;5078382;28;20543;-52
2023/07/27 12:16:41;;;;;;;9.23;3.03;;;23.10;95.10;;;;;;5083848;28;20460;-54
2023/07/27 12:19:08;;;;;;;5.60;3.10;;;23.10;95.20;;;;;;5084507;28;20458;-52
2023/07/27 12:21:35;;;;;;;2.50;2.13;;;23.10;95.80;;;;;;5081700;28;20939;-53
2023/07/27 12:24:02;;;;;;;3.33;2.50;;;23.10;95.50;;;;;;5084157;28;20490;-53
2023/07/27 12:26:30;;;;;;;3.83;2.13;;;23.10;98.00;;;;;;5085005;28;20459;-52
2023/07/27 12:28:57;;;;;;;2.43;1.80;;;23.10;99.40;;;;;;5086107;28;20458;-57
2023/07/27 12:31:25;;;;;;;2.07;1.83;;;23.10;99.90;;;;;;5082413;28;20459;-56
2023/07/27 12:33:52;;;;;;;3.73;1.60;;;23.10;99.90;;;;;;5090076;28;20459;-63
2023/07/27 12:36:18;;;;;;;3.20;1.70;;;23.10;99.90;;;;;;5089785;28;20479;-57
2023/07/27 12:38:46;;;;;;;2.07;1.20;;;23.10;99.90;;;;;;5087594;27;20971;-57
2023/07/27 12:41:13;;;;;;;1.63;1.40;;;23.20;99.90;;;;;;5091336;28;20789;-49
2023/07/27 12:43:40;;;;;;;4.20;1.80;;;23.10;99.90;;;;;;5090214;28;21413;-50
2023/07/27 12:46:07;;;;;;;1.60;1.50;;;23.20;99.90;;;;;;5093040;28;20537;-48
2023/07/27 12:48:35;;;;;;;2.77;1.60;;;23.10;99.90;;;;;;5085614;28;20469;-50
2023/07/27 12:51:01;;;;;;;1.40;1.30;;;23.20;99.90;;;;;;5093180;28;20466;-53